sensor_id;sensor_type;location;lat;lon;timestamp;temperature;humidity
14014;DHT22;49110;52.584;13.408;2023-02-28T00:00:22;3.40;96.40
14014;DHT22;49110;52.584;13.408;2023-02-28T00:01:23;3.30;96.40
14014;DHT22;49110;52.584;13.408;2023-02-28T00:02:24;3.30;96.40
14014;DHT22;49110;52.584;13.408;2023-02-28T00:03:24;3.40;96.40
14014;DHT22;49110;52.584;13.408;2023-02-28T00:04:24;3.40;96.40
14014;DHT22;49110;52.584;13.408;2023-02-28T00:05:26;3.40;96.50
14014;DHT22;49110;52.584;13.408;2023-02-28T00:06:27;3.30;96.50
14014;DHT22;49110;52.584;13.408;2023-02-28T00:07:29;3.20;96.50
14014;DHT22;49110;52.584;13.408;2023-02-28T00:08:29;3.20;96.70
14014;DHT22;49110;52.584;13.408;2023-02-28T00:09:30;3.20;96.70
14014;DHT22;49110;52.584;13.408;2023-02-28T00:10:31;3.10;96.80
14014;DHT22;49110;52.584;13.408;2023-02-28T00:11:32;3.10;96.80
14014;DHT22;49110;52.584;13.408;2023-02-28T00:12:33;3.10;96.80
14014;DHT22;49110;52.584;13.408;2023-02-28T00:13:36;3.10;97.00
14014;DHT22;49110;52.584;13.408;2023-02-28T00:14:40;3.00;97.00
14014;DHT22;49110;52.584;13.408;2023-02-28T00:15:40;3.00;97.00
14014;DHT22;49110;52.584;13.408;2023-02-28T00:16:41;3.00;97.10
14014;DHT22;49110;52.584;13.408;2023-02-28T00:17:42;3.10;97.20
14014;DHT22;49110;52.584;13.408;2023-02-28T00:18:42;3.10;97.20
14014;DHT22;49110;52.584;13.408;2023-02-28T00:19:43;3.10;97.30
14014;DHT22;49110;52.584;13.408;2023-02-28T00:20:44;3.10;97.30
14014;DHT22;49110;52.584;13.408;2023-02-28T00:21:44;3.00;97.30
14014;DHT22;49110;52.584;13.408;2023-02-28T00:22:49;3.00;97.30
14014;DHT22;49110;52.584;13.408;2023-02-28T00:23:50;2.90;97.40
14014;DHT22;49110;52.584;13.408;2023-02-28T00:24:51;2.80;97.60
14014;DHT22;49110;52.584;13.408;2023-02-28T00:25:51;2.80;97.80
14014;DHT22;49110;52.584;13.408;2023-02-28T00:26:52;2.70;97.80
14014;DHT22;49110;52.584;13.408;2023-02-28T00:27:52;2.80;98.00
14014;DHT22;49110;52.584;13.408;2023-02-28T00:28:53;2.80;98.10
14014;DHT22;49110;52.584;13.408;2023-02-28T00:29:53;2.70;98.10
14014;DHT22;49110;52.584;13.408;2023-02-28T00:30:54;2.60;98.20
14014;DHT22;49110;52.584;13.408;2023-02-28T00:31:55;2.60;98.30
14014;DHT22;49110;52.584;13.408;2023-02-28T00:32:55;2.60;98.40
14014;DHT22;49110;52.584;13.408;2023-02-28T00:33:56;2.60;98.50
14014;DHT22;49110;52.584;13.408;2023-02-28T00:34:56;2.60;98.80
14014;DHT22;49110;52.584;13.408;2023-02-28T00:36:04;2.70;98.90
14014;DHT22;49110;52.584;13.408;2023-02-28T00:37:07;2.70;98.90
14014;DHT22;49110;52.584;13.408;2023-02-28T00:38:09;2.70;98.70
14014;DHT22;49110;52.584;13.408;2023-02-28T00:39:10;2.70;98.60
14014;DHT22;49110;52.584;13.408;2023-02-28T00:40:11;2.70;98.70
14014;DHT22;49110;52.584;13.408;2023-02-28T00:41:12;2.70;98.70
14014;DHT22;49110;52.584;13.408;2023-02-28T00:42:13;2.80;98.80
14014;DHT22;49110;52.584;13.408;2023-02-28T00:43:13;2.80;98.90
14014;DHT22;49110;52.584;13.408;2023-02-28T00:44:14;2.80;98.90
14014;DHT22;49110;52.584;13.408;2023-02-28T00:45:14;2.80;98.80
14014;DHT22;49110;52.584;13.408;2023-02-28T00:46:15;2.90;98.80
14014;DHT22;49110;52.584;13.408;2023-02-28T00:47:15;2.90;98.70
14014;DHT22;49110;52.584;13.408;2023-02-28T00:48:16;2.90;98.60
14014;DHT22;49110;52.584;13.408;2023-02-28T00:49:17;2.90;98.60
14014;DHT22;49110;52.584;13.408;2023-02-28T00:50:18;2.90;98.70
14014;DHT22;49110;52.584;13.408;2023-02-28T00:51:20;2.90;98.80
14014;DHT22;49110;52.584;13.408;2023-02-28T00:52:20;2.90;98.90
14014;DHT22;49110;52.584;13.408;2023-02-28T00:53:21;2.80;98.80
14014;DHT22;49110;52.584;13.408;2023-02-28T00:54:23;2.90;98.80
14014;DHT22;49110;52.584;13.408;2023-02-28T00:55:23;2.90;98.90
14014;DHT22;49110;52.584;13.408;2023-02-28T00:56:24;2.90;98.90
14014;DHT22;49110;52.584;13.408;2023-02-28T00:57:28;2.90;98.80
14014;DHT22;49110;52.584;13.408;2023-02-28T00:58:28;2.90;98.70
14014;DHT22;49110;52.584;13.408;2023-02-28T00:59:29;2.80;98.70
14014;DHT22;49110;52.584;13.408;2023-02-28T01:00:30;2.70;98.80
14014;DHT22;49110;52.584;13.408;2023-02-28T01:01:34;2.70;99.10
14014;DHT22;49110;52.584;13.408;2023-02-28T01:02:34;2.80;99.00
14014;DHT22;49110;52.584;13.408;2023-02-28T01:03:35;2.80;99.00
14014;DHT22;49110;52.584;13.408;2023-02-28T01:04:35;2.90;99.00
14014;DHT22;49110;52.584;13.408;2023-02-28T01:05:36;2.90;98.90
14014;DHT22;49110;52.584;13.408;2023-02-28T01:06:36;2.90;98.80
14014;DHT22;49110;52.584;13.408;2023-02-28T01:07:37;3.00;98.80
14014;DHT22;49110;52.584;13.408;2023-02-28T01:08:41;3.00;98.80
14014;DHT22;49110;52.584;13.408;2023-02-28T01:09:42;3.00;99.10
14014;DHT22;49110;52.584;13.408;2023-02-28T01:10:46;2.90;99.40
14014;DHT22;49110;52.584;13.408;2023-02-28T01:11:47;2.90;99.60
14014;DHT22;49110;52.584;13.408;2023-02-28T01:12:48;2.80;99.30
14014;DHT22;49110;52.584;13.408;2023-02-28T01:13:48;2.90;99.20
14014;DHT22;49110;52.584;13.408;2023-02-28T01:14:49;2.80;99.30
14014;DHT22;49110;52.584;13.408;2023-02-28T01:15:52;2.90;99.30
14014;DHT22;49110;52.584;13.408;2023-02-28T01:16:56;2.90;99.40
14014;DHT22;49110;52.584;13.408;2023-02-28T01:17:57;2.90;99.40
14014;DHT22;49110;52.584;13.408;2023-02-28T01:18:57;2.90;99.50
14014;DHT22;49110;52.584;13.408;2023-02-28T01:19:58;2.80;99.40
14014;DHT22;49110;52.584;13.408;2023-02-28T01:21:03;2.80;99.40
14014;DHT22;49110;52.584;13.408;2023-02-28T01:22:05;2.90;99.50
14014;DHT22;49110;52.584;13.408;2023-02-28T01:23:06;2.80;99.40
14014;DHT22;49110;52.584;13.408;2023-02-28T01:24:06;2.90;99.50
14014;DHT22;49110;52.584;13.408;2023-02-28T01:25:07;2.80;99.60
14014;DHT22;49110;52.584;13.408;2023-02-28T01:26:13;2.70;99.70
14014;DHT22;49110;52.584;13.408;2023-02-28T01:27:14;2.70;99.90
14014;DHT22;49110;52.584;13.408;2023-02-28T01:28:15;2.60;99.90
14014;DHT22;49110;52.584;13.408;2023-02-28T01:29:15;2.70;99.90
14014;DHT22;49110;52.584;13.408;2023-02-28T01:30:16;2.70;99.90
14014;DHT22;49110;52.584;13.408;2023-02-28T01:31:17;2.70;99.90
14014;DHT22;49110;52.584;13.408;2023-02-28T01:32:18;2.70;99.90
14014;DHT22;49110;52.584;13.408;2023-02-28T01:33:18;2.60;99.80
14014;DHT22;49110;52.584;13.408;2023-02-28T01:34:19;2.60;99.70
14014;DHT22;49110;52.584;13.408;2023-02-28T01:35:20;2.70;99.80
14014;DHT22;49110;52.584;13.408;2023-02-28T01:36:22;2.70;99.70
14014;DHT22;49110;52.584;13.408;2023-02-28T01:37:23;2.70;99.70
14014;DHT22;49110;52.584;13.408;2023-02-28T01:38:27;2.70;99.60
14014;DHT22;49110;52.584;13.408;2023-02-28T01:39:28;2.70;99.60
14014;DHT22;49110;52.584;13.408;2023-02-28T01:40:29;2.70;99.60
14014;DHT22;49110;52.584;13.408;2023-02-28T01:41:32;2.60;99.40
14014;DHT22;49110;52.584;13.408;2023-02-28T01:42:33;2.60;99.60
14014;DHT22;49110;52.584;13.408;2023-02-28T01:44:03;2.60;99.80
14014;DHT22;49110;52.584;13.408;2023-02-28T01:45:27;2.50;99.90
14014;DHT22;49110;52.584;13.408;2023-02-28T01:46:32;2.50;99.90
14014;DHT22;49110;52.584;13.408;2023-02-28T01:47:36;2.50;99.90
14014;DHT22;49110;52.584;13.408;2023-02-28T01:48:43;2.40;99.90
14014;DHT22;49110;52.584;13.408;2023-02-28T01:49:44;2.40;99.90
14014;DHT22;49110;52.584;13.408;2023-02-28T01:50:46;2.30;99.90
14014;DHT22;49110;52.584;13.408;2023-02-28T01:51:56;2.30;99.90
14014;DHT22;49110;52.584;13.408;2023-02-28T01:52:59;2.30;99.90
14014;DHT22;49110;52.584;13.408;2023-02-28T01:54:17;2.30;99.90
14014;DHT22;49110;52.584;13.408;2023-02-28T01:55:22;2.30;99.90
14014;DHT22;49110;52.584;13.408;2023-02-28T01:56:27;2.40;99.90
14014;DHT22;49110;52.584;13.408;2023-02-28T01:57:32;2.30;99.90
14014;DHT22;49110;52.584;13.408;2023-02-28T01:58:37;2.40;99.90
14014;DHT22;49110;52.584;13.408;2023-02-28T01:59:45;2.30;99.90
14014;DHT22;49110;52.584;13.408;2023-02-28T02:00:51;2.40;99.90
14014;DHT22;49110;52.584;13.408;2023-02-28T02:01:53;2.30;99.90
14014;DHT22;49110;52.584;13.408;2023-02-28T02:02:57;2.30;99.90
14014;DHT22;49110;52.584;13.408;2023-02-28T02:04:01;2.20;99.90
14014;DHT22;49110;52.584;13.408;2023-02-28T02:05:14;2.30;99.90
14014;DHT22;49110;52.584;13.408;2023-02-28T02:06:14;2.40;99.90
14014;DHT22;49110;52.584;13.408;2023-02-28T02:07:16;2.40;99.90
14014;DHT22;49110;52.584;13.408;2023-02-28T02:08:19;2.40;99.90
14014;DHT22;49110;52.584;13.408;2023-02-28T02:09:21;2.30;99.90
14014;DHT22;49110;52.584;13.408;2023-02-28T02:10:27;2.40;99.90
14014;DHT22;49110;52.584;13.408;2023-02-28T02:11:29;2.30;99.90
14014;DHT22;49110;52.584;13.408;2023-02-28T02:15:32;2.30;99.90
14014;DHT22;49110;52.584;13.408;2023-02-28T02:16:51;2.40;99.90
14014;DHT22;49110;52.584;13.408;2023-02-28T02:17:57;2.30;99.90
14014;DHT22;49110;52.584;13.408;2023-02-28T02:19:14;2.30;99.90
14014;DHT22;49110;52.584;13.408;2023-02-28T02:20:46;2.30;99.90
14014;DHT22;49110;52.584;13.408;2023-02-28T02:22:07;2.30;99.90
14014;DHT22;49110;52.584;13.408;2023-02-28T02:32:09;2.20;99.90
14014;DHT22;49110;52.584;13.408;2023-02-28T02:33:22;2.20;99.90
14014;DHT22;49110;52.584;13.408;2023-02-28T02:36:06;2.10;99.90
14014;DHT22;49110;52.584;13.408;2023-02-28T02:37:28;2.00;99.90
14014;DHT22;49110;52.584;13.408;2023-02-28T02:38:50;1.90;99.90
14014;DHT22;49110;52.584;13.408;2023-02-28T02:40:03;1.90;99.90
14014;DHT22;49110;52.584;13.408;2023-02-28T02:43:53;1.90;99.90
14014;DHT22;49110;52.584;13.408;2023-02-28T02:45:27;1.90;99.90
14014;DHT22;49110;52.584;13.408;2023-02-28T02:46:39;1.90;99.90
14014;DHT22;49110;52.584;13.408;2023-02-28T02:47:42;2.00;99.90
14014;DHT22;49110;52.584;13.408;2023-02-28T02:48:44;2.00;99.90
14014;DHT22;49110;52.584;13.408;2023-02-28T02:49:49;2.00;99.90
14014;DHT22;49110;52.584;13.408;2023-02-28T02:50:54;1.90;99.90
14014;DHT22;49110;52.584;13.408;2023-02-28T02:51:56;1.90;99.90
14014;DHT22;49110;52.584;13.408;2023-02-28T02:53:00;1.80;99.90
14014;DHT22;49110;52.584;13.408;2023-02-28T02:54:11;1.70;99.90
14014;DHT22;49110;52.584;13.408;2023-02-28T02:55:17;1.70;99.90
14014;DHT22;49110;52.584;13.408;2023-02-28T02:56:20;1.70;99.90
14014;DHT22;49110;52.584;13.408;2023-02-28T02:58:44;1.80;99.90
14014;DHT22;49110;52.584;13.408;2023-02-28T02:59:45;1.80;99.90
14014;DHT22;49110;52.584;13.408;2023-02-28T03:00:52;1.70;99.90
14014;DHT22;49110;52.584;13.408;2023-02-28T03:01:59;1.70;99.90
14014;DHT22;49110;52.584;13.408;2023-02-28T03:03:01;1.80;99.90
14014;DHT22;49110;52.584;13.408;2023-02-28T03:04:10;1.80;99.90
14014;DHT22;49110;52.584;13.408;2023-02-28T03:05:19;1.90;99.90
14014;DHT22;49110;52.584;13.408;2023-02-28T03:06:20;1.90;99.90
14014;DHT22;49110;52.584;13.408;2023-02-28T03:07:20;1.90;99.90
14014;DHT22;49110;52.584;13.408;2023-02-28T03:08:25;1.80;99.90
14014;DHT22;49110;52.584;13.408;2023-02-28T03:09:26;1.80;99.90
14014;DHT22;49110;52.584;13.408;2023-02-28T03:10:43;1.80;99.90
14014;DHT22;49110;52.584;13.408;2023-02-28T03:11:46;1.90;99.90
14014;DHT22;49110;52.584;13.408;2023-02-28T03:12:56;1.80;99.90
14014;DHT22;49110;52.584;13.408;2023-02-28T03:15:32;1.90;99.90
14014;DHT22;49110;52.584;13.408;2023-02-28T03:18:04;1.70;99.90
14014;DHT22;49110;52.584;13.408;2023-02-28T03:19:25;1.70;99.90
14014;DHT22;49110;52.584;13.408;2023-02-28T03:20:45;1.70;99.90
14014;DHT22;49110;52.584;13.408;2023-02-28T03:23:10;1.70;99.90
14014;DHT22;49110;52.584;13.408;2023-02-28T03:25:05;1.70;99.90
14014;DHT22;49110;52.584;13.408;2023-02-28T03:25:58;1.70;99.90
14014;DHT22;49110;52.584;13.408;2023-02-28T03:27:30;1.70;99.90
14014;DHT22;49110;52.584;13.408;2023-02-28T03:28:41;1.60;99.90
14014;DHT22;49110;52.584;13.408;2023-02-28T03:29:54;1.50;99.90
14014;DHT22;49110;52.584;13.408;2023-02-28T03:31:26;1.40;99.90
14014;DHT22;49110;52.584;13.408;2023-02-28T03:32:33;1.40;99.90
14014;DHT22;49110;52.584;13.408;2023-02-28T03:33:44;1.30;99.90
14014;DHT22;49110;52.584;13.408;2023-02-28T03:34:50;1.40;99.90
14014;DHT22;49110;52.584;13.408;2023-02-28T03:35:59;1.40;99.90
14014;DHT22;49110;52.584;13.408;2023-02-28T03:37:08;1.40;99.90
14014;DHT22;49110;52.584;13.408;2023-02-28T03:38:21;1.40;99.90
14014;DHT22;49110;52.584;13.408;2023-02-28T03:39:28;1.40;99.90
14014;DHT22;49110;52.584;13.408;2023-02-28T03:40:33;1.40;99.90
14014;DHT22;49110;52.584;13.408;2023-02-28T03:42:11;1.40;99.90
14014;DHT22;49110;52.584;13.408;2023-02-28T03:43:19;1.30;99.90
14014;DHT22;49110;52.584;13.408;2023-02-28T03:44:27;1.30;99.90
14014;DHT22;49110;52.584;13.408;2023-02-28T03:45:33;1.20;99.90
14014;DHT22;49110;52.584;13.408;2023-02-28T03:46:38;1.20;99.90
14014;DHT22;49110;52.584;13.408;2023-02-28T03:48:00;1.30;99.90
14014;DHT22;49110;52.584;13.408;2023-02-28T03:49:07;1.20;99.90
14014;DHT22;49110;52.584;13.408;2023-02-28T03:50:13;1.20;99.90
14014;DHT22;49110;52.584;13.408;2023-02-28T03:51:18;1.20;99.90
14014;DHT22;49110;52.584;13.408;2023-02-28T03:52:23;1.20;99.90
14014;DHT22;49110;52.584;13.408;2023-02-28T03:53:36;1.20;99.90
14014;DHT22;49110;52.584;13.408;2023-02-28T03:54:43;1.30;99.90
14014;DHT22;49110;52.584;13.408;2023-02-28T03:55:52;1.40;99.90
14014;DHT22;49110;52.584;13.408;2023-02-28T03:57:02;1.30;99.90
14014;DHT22;49110;52.584;13.408;2023-02-28T03:59:56;1.30;99.90
14014;DHT22;49110;52.584;13.408;2023-02-28T04:01:03;1.30;99.90
14014;DHT22;49110;52.584;13.408;2023-02-28T04:02:08;1.30;99.90
14014;DHT22;49110;52.584;13.408;2023-02-28T04:03:09;1.30;99.90
14014;DHT22;49110;52.584;13.408;2023-02-28T04:04:10;1.40;99.90
14014;DHT22;49110;52.584;13.408;2023-02-28T04:05:11;1.30;99.90
14014;DHT22;49110;52.584;13.408;2023-02-28T04:06:17;1.30;99.90
14014;DHT22;49110;52.584;13.408;2023-02-28T04:07:18;1.30;99.90
14014;DHT22;49110;52.584;13.408;2023-02-28T04:08:22;1.20;99.90
14014;DHT22;49110;52.584;13.408;2023-02-28T04:09:22;1.20;99.90
14014;DHT22;49110;52.584;13.408;2023-02-28T04:10:23;1.10;99.90
14014;DHT22;49110;52.584;13.408;2023-02-28T04:11:34;1.10;99.90
14014;DHT22;49110;52.584;13.408;2023-02-28T04:12:37;1.20;99.90
14014;DHT22;49110;52.584;13.408;2023-02-28T04:13:38;1.20;99.90
14014;DHT22;49110;52.584;13.408;2023-02-28T04:14:38;1.10;99.90
14014;DHT22;49110;52.584;13.408;2023-02-28T04:15:39;1.10;99.90
14014;DHT22;49110;52.584;13.408;2023-02-28T04:16:41;1.10;99.90
14014;DHT22;49110;52.584;13.408;2023-02-28T04:17:42;1.10;99.90
14014;DHT22;49110;52.584;13.408;2023-02-28T04:18:42;1.10;99.90
14014;DHT22;49110;52.584;13.408;2023-02-28T04:19:43;1.10;99.90
14014;DHT22;49110;52.584;13.408;2023-02-28T04:20:44;1.10;99.90
14014;DHT22;49110;52.584;13.408;2023-02-28T04:21:47;1.10;99.90
14014;DHT22;49110;52.584;13.408;2023-02-28T04:22:48;1.20;99.90
14014;DHT22;49110;52.584;13.408;2023-02-28T04:23:48;1.10;99.90
14014;DHT22;49110;52.584;13.408;2023-02-28T04:24:49;1.00;99.90
14014;DHT22;49110;52.584;13.408;2023-02-28T04:25:49;1.00;99.90
14014;DHT22;49110;52.584;13.408;2023-02-28T04:26:53;1.00;99.90
14014;DHT22;49110;52.584;13.408;2023-02-28T04:27:53;1.00;99.90
14014;DHT22;49110;52.584;13.408;2023-02-28T04:28:57;0.90;99.90
14014;DHT22;49110;52.584;13.408;2023-02-28T04:29:58;0.90;99.90
14014;DHT22;49110;52.584;13.408;2023-02-28T04:31:04;0.90;99.90
14014;DHT22;49110;52.584;13.408;2023-02-28T04:32:04;1.00;99.90
14014;DHT22;49110;52.584;13.408;2023-02-28T04:33:05;0.90;99.90
14014;DHT22;49110;52.584;13.408;2023-02-28T04:34:06;0.90;99.90
14014;DHT22;49110;52.584;13.408;2023-02-28T04:35:07;0.90;99.90
14014;DHT22;49110;52.584;13.408;2023-02-28T04:36:08;1.00;99.90
14014;DHT22;49110;52.584;13.408;2023-02-28T04:37:09;0.90;99.90
14014;DHT22;49110;52.584;13.408;2023-02-28T04:38:09;0.90;99.90
14014;DHT22;49110;52.584;13.408;2023-02-28T04:39:09;0.90;99.90
14014;DHT22;49110;52.584;13.408;2023-02-28T04:40:10;0.90;99.90
14014;DHT22;49110;52.584;13.408;2023-02-28T04:41:12;0.90;99.90
14014;DHT22;49110;52.584;13.408;2023-02-28T04:42:13;0.90;99.90
14014;DHT22;49110;52.584;13.408;2023-02-28T04:43:13;0.90;99.90
14014;DHT22;49110;52.584;13.408;2023-02-28T04:44:14;1.00;99.90
14014;DHT22;49110;52.584;13.408;2023-02-28T04:45:15;0.90;99.90
14014;DHT22;49110;52.584;13.408;2023-02-28T04:46:17;0.90;99.90
14014;DHT22;49110;52.584;13.408;2023-02-28T04:47:18;0.90;99.90
14014;DHT22;49110;52.584;13.408;2023-02-28T04:48:19;0.90;99.90
14014;DHT22;49110;52.584;13.408;2023-02-28T04:49:19;0.90;99.90
14014;DHT22;49110;52.584;13.408;2023-02-28T04:50:20;0.80;99.90
14014;DHT22;49110;52.584;13.408;2023-02-28T04:51:20;0.80;99.90
14014;DHT22;49110;52.584;13.408;2023-02-28T04:52:21;0.70;99.90
14014;DHT22;49110;52.584;13.408;2023-02-28T04:53:24;0.70;99.90
14014;DHT22;49110;52.584;13.408;2023-02-28T04:54:24;0.70;99.90
14014;DHT22;49110;52.584;13.408;2023-02-28T04:55:25;0.70;99.90
14014;DHT22;49110;52.584;13.408;2023-02-28T04:56:25;0.70;99.90
14014;DHT22;49110;52.584;13.408;2023-02-28T04:57:26;0.70;99.90
14014;DHT22;49110;52.584;13.408;2023-02-28T04:58:29;0.70;99.90
14014;DHT22;49110;52.584;13.408;2023-02-28T04:59:30;0.70;99.90
14014;DHT22;49110;52.584;13.408;2023-02-28T05:00:30;0.70;99.90
14014;DHT22;49110;52.584;13.408;2023-02-28T05:01:33;0.70;99.90
14014;DHT22;49110;52.584;13.408;2023-02-28T05:02:34;0.70;99.90
14014;DHT22;49110;52.584;13.408;2023-02-28T05:03:35;0.80;99.90
14014;DHT22;49110;52.584;13.408;2023-02-28T05:04:36;0.70;99.90
14014;DHT22;49110;52.584;13.408;2023-02-28T05:05:37;0.80;99.90
14014;DHT22;49110;52.584;13.408;2023-02-28T05:06:37;0.80;99.90
14014;DHT22;49110;52.584;13.408;2023-02-28T05:07:38;0.70;99.90
14014;DHT22;49110;52.584;13.408;2023-02-28T05:08:39;0.70;99.90
14014;DHT22;49110;52.584;13.408;2023-02-28T05:09:39;0.70;99.90
14014;DHT22;49110;52.584;13.408;2023-02-28T05:10:40;0.70;99.90
14014;DHT22;49110;52.584;13.408;2023-02-28T05:11:41;0.70;99.90
14014;DHT22;49110;52.584;13.408;2023-02-28T05:12:41;0.70;99.90
14014;DHT22;49110;52.584;13.408;2023-02-28T05:13:42;0.70;99.90
14014;DHT22;49110;52.584;13.408;2023-02-28T05:14:42;0.70;99.90
14014;DHT22;49110;52.584;13.408;2023-02-28T05:15:44;0.80;99.90
14014;DHT22;49110;52.584;13.408;2023-02-28T05:16:44;0.70;99.90
14014;DHT22;49110;52.584;13.408;2023-02-28T05:17:45;0.70;99.90
14014;DHT22;49110;52.584;13.408;2023-02-28T05:18:46;0.60;99.90
14014;DHT22;49110;52.584;13.408;2023-02-28T05:19:47;0.60;99.90
14014;DHT22;49110;52.584;13.408;2023-02-28T05:20:47;0.60;99.90
14014;DHT22;49110;52.584;13.408;2023-02-28T05:21:51;0.60;99.90
14014;DHT22;49110;52.584;13.408;2023-02-28T05:22:52;0.70;99.90
14014;DHT22;49110;52.584;13.408;2023-02-28T05:23:54;0.70;99.90
14014;DHT22;49110;52.584;13.408;2023-02-28T05:24:55;0.60;99.90
14014;DHT22;49110;52.584;13.408;2023-02-28T05:25:55;0.70;99.90
14014;DHT22;49110;52.584;13.408;2023-02-28T05:26:56;0.60;99.90
14014;DHT22;49110;52.584;13.408;2023-02-28T05:27:56;0.60;99.90
14014;DHT22;49110;52.584;13.408;2023-02-28T05:28:57;0.60;99.90
14014;DHT22;49110;52.584;13.408;2023-02-28T05:29:57;0.50;99.90
14014;DHT22;49110;52.584;13.408;2023-02-28T05:30:59;0.50;99.90
14014;DHT22;49110;52.584;13.408;2023-02-28T05:32:00;0.50;99.90
14014;DHT22;49110;52.584;13.408;2023-02-28T05:33:00;0.40;99.90
14014;DHT22;49110;52.584;13.408;2023-02-28T05:34:01;0.50;99.90
14014;DHT22;49110;52.584;13.408;2023-02-28T05:35:01;0.50;99.90
14014;DHT22;49110;52.584;13.408;2023-02-28T05:36:02;0.50;99.90
14014;DHT22;49110;52.584;13.408;2023-02-28T05:37:03;0.50;99.90
14014;DHT22;49110;52.584;13.408;2023-02-28T05:38:07;0.50;99.90
14014;DHT22;49110;52.584;13.408;2023-02-28T05:39:07;0.60;99.90
14014;DHT22;49110;52.584;13.408;2023-02-28T05:40:12;0.50;99.90
14014;DHT22;49110;52.584;13.408;2023-02-28T05:41:13;0.60;99.90
14014;DHT22;49110;52.584;13.408;2023-02-28T05:42:19;0.60;99.90
14014;DHT22;49110;52.584;13.408;2023-02-28T05:43:23;0.60;99.90
14014;DHT22;49110;52.584;13.408;2023-02-28T05:44:30;0.60;99.90
14014;DHT22;49110;52.584;13.408;2023-02-28T05:45:36;0.50;99.90
14014;DHT22;49110;52.584;13.408;2023-02-28T05:46:37;0.60;99.90
14014;DHT22;49110;52.584;13.408;2023-02-28T05:47:39;0.60;99.90
14014;DHT22;49110;52.584;13.408;2023-02-28T05:48:42;0.60;99.90
14014;DHT22;49110;52.584;13.408;2023-02-28T05:49:42;0.50;99.90
14014;DHT22;49110;52.584;13.408;2023-02-28T05:50:43;0.60;99.90
14014;DHT22;49110;52.584;13.408;2023-02-28T05:51:45;0.60;99.90
14014;DHT22;49110;52.584;13.408;2023-02-28T05:52:50;0.60;99.90
14014;DHT22;49110;52.584;13.408;2023-02-28T05:53:50;0.70;99.90
14014;DHT22;49110;52.584;13.408;2023-02-28T05:54:51;0.70;99.90
14014;DHT22;49110;52.584;13.408;2023-02-28T05:55:51;0.70;99.90
14014;DHT22;49110;52.584;13.408;2023-02-28T05:56:52;0.70;99.90
14014;DHT22;49110;52.584;13.408;2023-02-28T05:57:52;0.70;99.90
14014;DHT22;49110;52.584;13.408;2023-02-28T05:58:53;0.80;99.90
14014;DHT22;49110;52.584;13.408;2023-02-28T05:59:53;0.70;99.90
14014;DHT22;49110;52.584;13.408;2023-02-28T06:00:54;0.70;99.90
14014;DHT22;49110;52.584;13.408;2023-02-28T06:01:54;0.70;99.90
14014;DHT22;49110;52.584;13.408;2023-02-28T06:02:55;0.60;99.90
14014;DHT22;49110;52.584;13.408;2023-02-28T06:04:02;0.60;99.90
14014;DHT22;49110;52.584;13.408;2023-02-28T06:05:03;0.70;99.90
14014;DHT22;49110;52.584;13.408;2023-02-28T06:06:04;0.60;99.90
14014;DHT22;49110;52.584;13.408;2023-02-28T06:07:04;0.50;99.90
14014;DHT22;49110;52.584;13.408;2023-02-28T06:08:05;0.50;99.90
14014;DHT22;49110;52.584;13.408;2023-02-28T06:09:08;0.50;99.90
14014;DHT22;49110;52.584;13.408;2023-02-28T06:10:13;0.50;99.90
14014;DHT22;49110;52.584;13.408;2023-02-28T06:11:14;0.50;99.90
14014;DHT22;49110;52.584;13.408;2023-02-28T06:12:14;0.40;99.90
14014;DHT22;49110;52.584;13.408;2023-02-28T06:13:15;0.40;99.90
14014;DHT22;49110;52.584;13.408;2023-02-28T06:14:17;0.40;99.90
14014;DHT22;49110;52.584;13.408;2023-02-28T06:15:18;0.40;99.90
14014;DHT22;49110;52.584;13.408;2023-02-28T06:16:21;0.40;99.90
14014;DHT22;49110;52.584;13.408;2023-02-28T06:17:21;0.40;99.90
14014;DHT22;49110;52.584;13.408;2023-02-28T06:18:21;0.50;99.90
14014;DHT22;49110;52.584;13.408;2023-02-28T06:19:22;0.50;99.90
14014;DHT22;49110;52.584;13.408;2023-02-28T06:20:26;0.50;99.90
14014;DHT22;49110;52.584;13.408;2023-02-28T06:21:29;0.60;99.90
14014;DHT22;49110;52.584;13.408;2023-02-28T06:22:30;0.60;99.90
14014;DHT22;49110;52.584;13.408;2023-02-28T06:23:31;0.70;99.90
14014;DHT22;49110;52.584;13.408;2023-02-28T06:24:32;0.70;99.90
14014;DHT22;49110;52.584;13.408;2023-02-28T06:25:33;0.70;99.90
14014;DHT22;49110;52.584;13.408;2023-02-28T06:26:33;0.80;99.90
14014;DHT22;49110;52.584;13.408;2023-02-28T06:27:34;0.80;99.90
14014;DHT22;49110;52.584;13.408;2023-02-28T06:28:34;0.80;99.90
14014;DHT22;49110;52.584;13.408;2023-02-28T06:29:35;0.80;99.90
14014;DHT22;49110;52.584;13.408;2023-02-28T06:30:37;0.90;99.90
14014;DHT22;49110;52.584;13.408;2023-02-28T06:31:38;0.90;99.90
14014;DHT22;49110;52.584;13.408;2023-02-28T06:32:38;0.90;99.90
14014;DHT22;49110;52.584;13.408;2023-02-28T06:33:39;0.90;99.90
14014;DHT22;49110;52.584;13.408;2023-02-28T06:34:40;0.90;99.90
14014;DHT22;49110;52.584;13.408;2023-02-28T06:35:44;0.90;99.90
14014;DHT22;49110;52.584;13.408;2023-02-28T06:36:44;0.90;99.90
14014;DHT22;49110;52.584;13.408;2023-02-28T06:37:45;1.00;99.90
14014;DHT22;49110;52.584;13.408;2023-02-28T06:38:47;1.10;99.90
14014;DHT22;49110;52.584;13.408;2023-02-28T06:39:52;1.10;99.90
14014;DHT22;49110;52.584;13.408;2023-02-28T06:40:53;1.10;99.90
14014;DHT22;49110;52.584;13.408;2023-02-28T06:41:54;1.10;99.90
14014;DHT22;49110;52.584;13.408;2023-02-28T06:42:55;1.10;99.90
14014;DHT22;49110;52.584;13.408;2023-02-28T06:43:55;1.10;99.90
14014;DHT22;49110;52.584;13.408;2023-02-28T06:44:56;1.20;99.90
14014;DHT22;49110;52.584;13.408;2023-02-28T06:45:58;1.20;99.90
14014;DHT22;49110;52.584;13.408;2023-02-28T06:46:58;1.30;99.90
14014;DHT22;49110;52.584;13.408;2023-02-28T06:47:59;1.30;99.90
14014;DHT22;49110;52.584;13.408;2023-02-28T06:49:00;1.30;99.90
14014;DHT22;49110;52.584;13.408;2023-02-28T06:50:01;1.30;99.90
14014;DHT22;49110;52.584;13.408;2023-02-28T06:51:14;1.30;99.90
14014;DHT22;49110;52.584;13.408;2023-02-28T06:52:16;1.30;99.90
14014;DHT22;49110;52.584;13.408;2023-02-28T06:53:16;1.30;99.90
14014;DHT22;49110;52.584;13.408;2023-02-28T06:54:17;1.40;99.90
14014;DHT22;49110;52.584;13.408;2023-02-28T06:55:18;1.40;99.90
14014;DHT22;49110;52.584;13.408;2023-02-28T06:56:19;1.50;99.90
14014;DHT22;49110;52.584;13.408;2023-02-28T06:57:20;1.50;99.90
14014;DHT22;49110;52.584;13.408;2023-02-28T06:58:21;1.50;99.90
14014;DHT22;49110;52.584;13.408;2023-02-28T06:59:22;1.50;99.90
14014;DHT22;49110;52.584;13.408;2023-02-28T07:00:22;1.50;99.90
14014;DHT22;49110;52.584;13.408;2023-02-28T07:01:23;1.60;99.90
14014;DHT22;49110;52.584;13.408;2023-02-28T07:02:24;1.60;99.90
14014;DHT22;49110;52.584;13.408;2023-02-28T07:03:25;1.60;99.90
14014;DHT22;49110;52.584;13.408;2023-02-28T07:04:25;1.60;99.90